sensor_id;sensor_type;location;lat;lon;timestamp;P1;durP1;ratioP1;P2;durP2;ratioP2
17496;SDS011;62150;43.582;1.456;2023-07-20T04:07:38;8.45;;;3.90;;
17496;SDS011;62150;43.582;1.456;2023-07-20T04:10:06;9.70;;;3.95;;
17496;SDS011;62150;43.582;1.456;2023-07-20T04:12:34;8.15;;;3.88;;
17496;SDS011;62150;43.582;1.456;2023-07-20T04:15:02;8.88;;;3.72;;
17496;SDS011;62150;43.582;1.456;2023-07-20T04:17:32;8.75;;;4.00;;
17496;SDS011;62150;43.582;1.456;2023-07-20T04:19:59;8.07;;;3.50;;
17496;SDS011;62150;43.582;1.456;2023-07-20T04:22:28;9.13;;;3.70;;
17496;SDS011;62150;43.582;1.456;2023-07-20T04:24:59;8.02;;;3.53;;
17496;SDS011;62150;43.582;1.456;2023-07-20T04:27:27;8.25;;;3.50;;
17496;SDS011;62150;43.582;1.456;2023-07-20T04:29:54;9.48;;;3.63;;
17496;SDS011;62150;43.582;1.456;2023-07-20T04:32:22;7.47;;;3.63;;
17496;SDS011;62150;43.582;1.456;2023-07-20T04:34:50;7.63;;;3.55;;
17496;SDS011;62150;43.582;1.456;2023-07-20T04:37:17;8.02;;;3.35;;
17496;SDS011;62150;43.582;1.456;2023-07-20T04:39:45;7.68;;;3.70;;
17496;SDS011;62150;43.582;1.456;2023-07-20T04:42:14;8.60;;;3.47;;
17496;SDS011;62150;43.582;1.456;2023-07-20T04:44:41;7.18;;;3.45;;
17496;SDS011;62150;43.582;1.456;2023-07-20T04:47:18;6.10;;;3.35;;
17496;SDS011;62150;43.582;1.456;2023-07-20T04:49:45;7.70;;;2.97;;
17496;SDS011;62150;43.582;1.456;2023-07-20T04:52:13;7.28;;;3.10;;
17496;SDS011;62150;43.582;1.456;2023-07-20T04:54:41;8.93;;;3.42;;
17496;SDS011;62150;43.582;1.456;2023-07-20T04:57:09;6.32;;;3.38;;
17496;SDS011;62150;43.582;1.456;2023-07-20T04:59:38;7.53;;;3.50;;
17496;SDS011;62150;43.582;1.456;2023-07-20T05:02:06;8.77;;;3.45;;
17496;SDS011;62150;43.582;1.456;2023-07-20T05:04:33;8.80;;;3.40;;
17496;SDS011;62150;43.582;1.456;2023-07-20T05:07:01;6.72;;;3.22;;
17496;SDS011;62150;43.582;1.456;2023-07-20T05:09:29;6.05;;;3.13;;
17496;SDS011;62150;43.582;1.456;2023-07-20T05:11:56;7.85;;;3.20;;
17496;SDS011;62150;43.582;1.456;2023-07-20T05:14:24;7.68;;;3.25;;
17496;SDS011;62150;43.582;1.456;2023-07-20T05:16:53;6.85;;;3.03;;
17496;SDS011;62150;43.582;1.456;2023-07-20T05:19:20;8.07;;;3.13;;
17496;SDS011;62150;43.582;1.456;2023-07-20T05:21:48;7.57;;;3.22;;
17496;SDS011;62150;43.582;1.456;2023-07-20T05:24:15;5.78;;;2.90;;
17496;SDS011;62150;43.582;1.456;2023-07-20T05:26:43;7.85;;;3.10;;
17496;SDS011;62150;43.582;1.456;2023-07-20T05:29:10;7.80;;;3.33;;
17496;SDS011;62150;43.582;1.456;2023-07-20T05:31:38;7.47;;;3.20;;
17496;SDS011;62150;43.582;1.456;2023-07-20T05:34:07;6.35;;;2.90;;
17496;SDS011;62150;43.582;1.456;2023-07-20T05:36:34;7.72;;;3.15;;
17496;SDS011;62150;43.582;1.456;2023-07-20T05:39:22;7.22;;;3.05;;
17496;SDS011;62150;43.582;1.456;2023-07-20T05:41:50;6.45;;;3.47;;
17496;SDS011;62150;43.582;1.456;2023-07-20T05:44:17;8.60;;;3.50;;
17496;SDS011;62150;43.582;1.456;2023-07-20T05:46:45;8.38;;;3.53;;
17496;SDS011;62150;43.582;1.456;2023-07-20T05:49:14;8.50;;;3.72;;
17496;SDS011;62150;43.582;1.456;2023-07-20T05:51:41;7.45;;;3.42;;
17496;SDS011;62150;43.582;1.456;2023-07-20T05:54:09;7.15;;;3.13;;
17496;SDS011;62150;43.582;1.456;2023-07-20T05:56:36;7.30;;;3.13;;
17496;SDS011;62150;43.582;1.456;2023-07-20T05:59:03;7.10;;;3.28;;
17496;SDS011;62150;43.582;1.456;2023-07-20T06:01:31;9.82;;;3.50;;
17496;SDS011;62150;43.582;1.456;2023-07-20T06:03:58;9.10;;;3.53;;
17496;SDS011;62150;43.582;1.456;2023-07-20T06:06:27;8.30;;;3.78;;
17496;SDS011;62150;43.582;1.456;2023-07-20T06:08:55;7.47;;;3.22;;
17496;SDS011;62150;43.582;1.456;2023-07-20T06:11:22;9.45;;;3.40;;
17496;SDS011;62150;43.582;1.456;2023-07-20T06:13:50;8.82;;;3.58;;
